sensor_id;sensor_type;location;lat;lon;timestamp;pressure;altitude;pressure_sealevel;temperature;humidity
550;BME280;20066;48.764;9.176;2022-11-15T00:01:14;97998.94;;;12.22;64.64
550;BME280;20066;48.764;9.176;2022-11-15T00:03:43;97990.97;;;12.11;65.16
550;BME280;20066;48.764;9.176;2022-11-15T00:06:11;97987.97;;;12.43;64.41
550;BME280;20066;48.764;9.176;2022-11-15T00:08:39;97989.25;;;12.69;63.38
550;BME280;20066;48.764;9.176;2022-11-15T00:11:09;97984.88;;;12.82;62.65
550;BME280;20066;48.764;9.176;2022-11-15T00:13:39;97984.41;;;12.91;62.64
550;BME280;20066;48.764;9.176;2022-11-15T00:16:07;97983.69;;;12.83;62.54
550;BME280;20066;48.764;9.176;2022-11-15T00:18:37;97981.00;;;11.46;66.25
550;BME280;20066;48.764;9.176;2022-11-15T00:21:07;97977.13;;;12.50;64.24
550;BME280;20066;48.764;9.176;2022-11-15T00:23:34;97979.97;;;12.32;64.55
550;BME280;20066;48.764;9.176;2022-11-15T00:26:03;97974.94;;;11.90;65.08
550;BME280;20066;48.764;9.176;2022-11-15T00:28:31;97967.88;;;12.48;63.51
550;BME280;20066;48.764;9.176;2022-11-15T00:31:05;97971.50;;;12.71;62.41
550;BME280;20066;48.764;9.176;2022-11-15T00:33:33;97966.31;;;12.84;62.46
550;BME280;20066;48.764;9.176;2022-11-15T00:36:02;97966.50;;;12.32;63.86
550;BME280;20066;48.764;9.176;2022-11-15T00:38:31;97971.72;;;12.06;65.08
550;BME280;20066;48.764;9.176;2022-11-15T00:41:00;97962.91;;;11.50;66.40
550;BME280;20066;48.764;9.176;2022-11-15T00:43:34;97965.13;;;10.86;69.74
550;BME280;20066;48.764;9.176;2022-11-15T00:46:04;97963.00;;;11.29;68.21
550;BME280;20066;48.764;9.176;2022-11-15T00:48:32;97960.97;;;11.50;67.81
550;BME280;20066;48.764;9.176;2022-11-15T00:50:59;97957.56;;;11.39;67.16
550;BME280;20066;48.764;9.176;2022-11-15T00:53:27;97961.50;;;11.83;65.45
550;BME280;20066;48.764;9.176;2022-11-15T00:55:56;97958.53;;;12.18;64.38
550;BME280;20066;48.764;9.176;2022-11-15T00:58:23;97952.84;;;12.09;64.84
550;BME280;20066;48.764;9.176;2022-11-15T01:00:51;97951.03;;;12.36;63.85
550;BME280;20066;48.764;9.176;2022-11-15T01:03:21;97948.97;;;12.51;62.67
550;BME280;20066;48.764;9.176;2022-11-15T01:05:48;97953.09;;;11.77;65.72
550;BME280;20066;48.764;9.176;2022-11-15T01:08:16;97944.66;;;12.20;64.00
550;BME280;20066;48.764;9.176;2022-11-15T01:10:44;97946.94;;;11.77;64.27
550;BME280;20066;48.764;9.176;2022-11-15T01:13:12;97938.75;;;11.32;67.39
550;BME280;20066;48.764;9.176;2022-11-15T01:15:40;97943.00;;;11.88;65.71
550;BME280;20066;48.764;9.176;2022-11-15T01:18:08;97939.31;;;12.13;64.21
550;BME280;20066;48.764;9.176;2022-11-15T01:20:40;97940.50;;;10.91;66.94
550;BME280;20066;48.764;9.176;2022-11-15T01:23:09;97937.19;;;11.38;66.08
550;BME280;20066;48.764;9.176;2022-11-15T01:25:37;97945.91;;;12.08;64.36
550;BME280;20066;48.764;9.176;2022-11-15T01:28:05;97942.88;;;12.44;62.99
550;BME280;20066;48.764;9.176;2022-11-15T01:30:33;97939.34;;;12.50;62.54
550;BME280;20066;48.764;9.176;2022-11-15T01:33:01;97937.03;;;12.11;64.45
550;BME280;20066;48.764;9.176;2022-11-15T01:35:28;97937.03;;;12.11;64.11
550;BME280;20066;48.764;9.176;2022-11-15T01:37:58;97940.59;;;12.42;62.95
550;BME280;20066;48.764;9.176;2022-11-15T01:40:25;97932.81;;;12.10;64.14
550;BME280;20066;48.764;9.176;2022-11-15T01:42:53;97931.34;;;12.43;63.00
550;BME280;20066;48.764;9.176;2022-11-15T01:45:21;97929.44;;;12.40;63.22
550;BME280;20066;48.764;9.176;2022-11-15T01:47:51;97937.50;;;12.44;62.81
550;BME280;20066;48.764;9.176;2022-11-15T01:50:22;97926.25;;;12.49;63.02
550;BME280;20066;48.764;9.176;2022-11-15T01:52:53;97933.59;;;12.48;63.17
550;BME280;20066;48.764;9.176;2022-11-15T01:55:25;97928.75;;;12.29;63.82
550;BME280;20066;48.764;9.176;2022-11-15T01:57:57;97934.22;;;12.22;64.32
550;BME280;20066;48.764;9.176;2022-11-15T02:00:28;97927.00;;;11.01;68.61
550;BME280;20066;48.764;9.176;2022-11-15T02:02:56;97927.41;;;11.58;67.02
550;BME280;20066;48.764;9.176;2022-11-15T02:05:25;97916.84;;;11.89;65.20
550;BME280;20066;48.764;9.176;2022-11-15T02:07:53;97923.16;;;11.61;66.96
550;BME280;20066;48.764;9.176;2022-11-15T02:10:24;97916.78;;;11.41;67.30
550;BME280;20066;48.764;9.176;2022-11-15T02:12:52;97916.03;;;11.92;65.29
550;BME280;20066;48.764;9.176;2022-11-15T02:15:21;97909.34;;;12.07;64.86
550;BME280;20066;48.764;9.176;2022-11-15T02:18:04;97912.06;;;12.04;64.30
550;BME280;20066;48.764;9.176;2022-11-15T02:20:46;97910.69;;;11.85;65.39
550;BME280;20066;48.764;9.176;2022-11-15T02:23:36;97907.09;;;12.02;64.82
550;BME280;20066;48.764;9.176;2022-11-15T02:26:31;97895.53;;;10.95;68.22
550;BME280;20066;48.764;9.176;2022-11-15T02:29:10;97894.47;;;11.37;67.99
550;BME280;20066;48.764;9.176;2022-11-15T02:31:46;97894.66;;;11.67;66.03
550;BME280;20066;48.764;9.176;2022-11-15T02:34:24;97893.09;;;11.73;66.07
550;BME280;20066;48.764;9.176;2022-11-15T02:37:01;97888.28;;;11.43;66.77
550;BME280;20066;48.764;9.176;2022-11-15T02:39:38;97884.97;;;11.21;67.66
550;BME280;20066;48.764;9.176;2022-11-15T02:42:14;97884.63;;;11.12;67.46
550;BME280;20066;48.764;9.176;2022-11-15T02:45:05;97875.75;;;11.74;65.89
550;BME280;20066;48.764;9.176;2022-11-15T02:47:40;97878.53;;;11.60;66.28
550;BME280;20066;48.764;9.176;2022-11-15T02:50:11;97873.81;;;11.78;64.75
550;BME280;20066;48.764;9.176;2022-11-15T02:52:39;97865.09;;;12.05;63.99
550;BME280;20066;48.764;9.176;2022-11-15T02:55:26;97866.94;;;11.74;65.32
550;BME280;20066;48.764;9.176;2022-11-15T02:58:06;97867.72;;;11.71;64.53
550;BME280;20066;48.764;9.176;2022-11-15T03:00:43;97869.63;;;11.70;64.73
550;BME280;20066;48.764;9.176;2022-11-15T03:03:26;97865.47;;;11.58;64.97
550;BME280;20066;48.764;9.176;2022-11-15T03:06:05;97860.84;;;11.11;67.09
550;BME280;20066;48.764;9.176;2022-11-15T03:08:42;97858.44;;;11.23;66.23
550;BME280;20066;48.764;9.176;2022-11-15T03:11:14;97850.84;;;11.59;65.48
550;BME280;20066;48.764;9.176;2022-11-15T03:13:47;97858.38;;;11.34;66.30
550;BME280;20066;48.764;9.176;2022-11-15T03:16:21;97856.59;;;11.10;67.44
550;BME280;20066;48.764;9.176;2022-11-15T03:18:57;97854.34;;;11.01;67.13
550;BME280;20066;48.764;9.176;2022-11-15T03:21:28;97844.41;;;10.91;68.09
550;BME280;20066;48.764;9.176;2022-11-15T03:23:58;97843.75;;;10.73;68.56
550;BME280;20066;48.764;9.176;2022-11-15T03:26:29;97846.47;;;11.28;66.74
550;BME280;20066;48.764;9.176;2022-11-15T03:29:00;97841.16;;;11.69;65.67
550;BME280;20066;48.764;9.176;2022-11-15T03:31:33;97845.63;;;11.42;66.30
550;BME280;20066;48.764;9.176;2022-11-15T03:34:24;97852.81;;;11.52;65.58
550;BME280;20066;48.764;9.176;2022-11-15T03:36:53;97845.00;;;11.68;65.03
550;BME280;20066;48.764;9.176;2022-11-15T03:39:22;97840.69;;;11.33;65.65
550;BME280;20066;48.764;9.176;2022-11-15T03:41:59;97830.56;;;10.96;66.40
550;BME280;20066;48.764;9.176;2022-11-15T03:44:36;97820.47;;;11.11;66.88
550;BME280;20066;48.764;9.176;2022-11-15T03:47:11;97818.28;;;10.92;67.52
550;BME280;20066;48.764;9.176;2022-11-15T03:49:45;97825.97;;;9.81;72.23
550;BME280;20066;48.764;9.176;2022-11-15T03:52:17;97827.78;;;10.41;69.56
550;BME280;20066;48.764;9.176;2022-11-15T03:54:54;97827.06;;;10.16;71.57
550;BME280;20066;48.764;9.176;2022-11-15T03:57:22;97817.34;;;11.12;68.07
550;BME280;20066;48.764;9.176;2022-11-15T03:59:50;97820.53;;;11.00;68.42
550;BME280;20066;48.764;9.176;2022-11-15T04:02:17;97815.34;;;11.27;67.37
550;BME280;20066;48.764;9.176;2022-11-15T04:04:46;97809.63;;;10.59;68.54
550;BME280;20066;48.764;9.176;2022-11-15T04:07:14;97815.66;;;9.65;73.29
550;BME280;20066;48.764;9.176;2022-11-15T04:09:42;97816.03;;;9.85;72.19
550;BME280;20066;48.764;9.176;2022-11-15T04:12:28;97817.97;;;10.75;68.72
550;BME280;20066;48.764;9.176;2022-11-15T04:15:01;97810.63;;;11.38;67.13
550;BME280;20066;48.764;9.176;2022-11-15T04:17:37;97810.09;;;11.09;67.13
550;BME280;20066;48.764;9.176;2022-11-15T04:20:09;97820.78;;;11.16;67.03
550;BME280;20066;48.764;9.176;2022-11-15T04:22:54;97808.53;;;11.12;66.79
550;BME280;20066;48.764;9.176;2022-11-15T04:25:40;97809.97;;;10.68;68.14
550;BME280;20066;48.764;9.176;2022-11-15T04:28:08;97818.66;;;10.94;67.28
550;BME280;20066;48.764;9.176;2022-11-15T04:30:36;97809.72;;;11.07;67.71
550;BME280;20066;48.764;9.176;2022-11-15T04:33:04;97823.56;;;11.06;67.71
550;BME280;20066;48.764;9.176;2022-11-15T04:35:33;97818.94;;;11.58;65.77
550;BME280;20066;48.764;9.176;2022-11-15T04:38:03;97808.44;;;11.71;65.38
550;BME280;20066;48.764;9.176;2022-11-15T04:40:30;97804.91;;;10.81;68.28
550;BME280;20066;48.764;9.176;2022-11-15T04:42:58;97797.13;;;11.42;65.79
550;BME280;20066;48.764;9.176;2022-11-15T04:45:29;97796.88;;;11.74;64.71
550;BME280;20066;48.764;9.176;2022-11-15T04:47:57;97796.31;;;11.48;64.91
550;BME280;20066;48.764;9.176;2022-11-15T04:50:25;97794.56;;;10.72;67.73
550;BME280;20066;48.764;9.176;2022-11-15T04:52:54;97795.50;;;11.51;65.87
550;BME280;20066;48.764;9.176;2022-11-15T04:55:22;97796.63;;;11.06;67.35
550;BME280;20066;48.764;9.176;2022-11-15T04:57:57;97796.25;;;11.55;65.39
550;BME280;20066;48.764;9.176;2022-11-15T05:00:27;97795.44;;;11.58;65.35
550;BME280;20066;48.764;9.176;2022-11-15T05:02:56;97788.19;;;11.52;65.31
550;BME280;20066;48.764;9.176;2022-11-15T05:05:42;97787.53;;;11.41;65.32
550;BME280;20066;48.764;9.176;2022-11-15T05:08:11;97777.09;;;11.46;65.33
550;BME280;20066;48.764;9.176;2022-11-15T05:10:39;97778.50;;;11.17;66.20
550;BME280;20066;48.764;9.176;2022-11-15T05:13:06;97777.34;;;11.18;65.91
550;BME280;20066;48.764;9.176;2022-11-15T05:15:37;97773.06;;;10.72;67.49
550;BME280;20066;48.764;9.176;2022-11-15T05:18:05;97766.75;;;11.41;66.43
550;BME280;20066;48.764;9.176;2022-11-15T05:20:33;97762.75;;;11.56;65.24
550;BME280;20066;48.764;9.176;2022-11-15T05:23:00;97775.69;;;10.79;69.03
550;BME280;20066;48.764;9.176;2022-11-15T05:25:30;97773.28;;;11.40;65.48
550;BME280;20066;48.764;9.176;2022-11-15T05:27:57;97776.09;;;11.71;64.83
550;BME280;20066;48.764;9.176;2022-11-15T05:30:25;97776.00;;;11.40;65.86
550;BME280;20066;48.764;9.176;2022-11-15T05:32:53;97766.19;;;10.61;69.10
550;BME280;20066;48.764;9.176;2022-11-15T05:35:28;97763.50;;;11.16;66.89
550;BME280;20066;48.764;9.176;2022-11-15T05:37:58;97762.75;;;11.15;66.33
550;BME280;20066;48.764;9.176;2022-11-15T05:40:26;97765.69;;;11.28;65.78
550;BME280;20066;48.764;9.176;2022-11-15T05:42:56;97754.94;;;10.80;67.10
550;BME280;20066;48.764;9.176;2022-11-15T05:45:25;97756.00;;;10.90;67.80
550;BME280;20066;48.764;9.176;2022-11-15T05:47:55;97749.38;;;10.46;69.43
550;BME280;20066;48.764;9.176;2022-11-15T05:50:24;97749.41;;;11.01;67.44
550;BME280;20066;48.764;9.176;2022-11-15T05:52:54;97749.59;;;11.25;66.87
550;BME280;20066;48.764;9.176;2022-11-15T05:55:29;97745.44;;;10.65;69.34
550;BME280;20066;48.764;9.176;2022-11-15T05:57:58;97755.09;;;10.55;67.82
550;BME280;20066;48.764;9.176;2022-11-15T06:00:27;97753.69;;;10.22;70.05
550;BME280;20066;48.764;9.176;2022-11-15T06:02:55;97759.03;;;10.99;68.00
550;BME280;20066;48.764;9.176;2022-11-15T06:05:23;97754.91;;;10.87;67.77
550;BME280;20066;48.764;9.176;2022-11-15T06:07:51;97750.44;;;11.14;65.94
550;BME280;20066;48.764;9.176;2022-11-15T06:10:19;97758.63;;;11.04;67.78
550;BME280;20066;48.764;9.176;2022-11-15T06:12:46;97753.84;;;11.22;66.24
550;BME280;20066;48.764;9.176;2022-11-15T06:15:16;97756.34;;;10.99;67.59
550;BME280;20066;48.764;9.176;2022-11-15T06:17:44;97763.53;;;11.12;66.13
550;BME280;20066;48.764;9.176;2022-11-15T06:20:11;97762.63;;;11.30;66.46
550;BME280;20066;48.764;9.176;2022-11-15T06:22:39;97761.50;;;11.23;65.52
550;BME280;20066;48.764;9.176;2022-11-15T06:25:07;97765.31;;;11.30;66.44
550;BME280;20066;48.764;9.176;2022-11-15T06:27:35;97771.63;;;11.53;64.61
550;BME280;20066;48.764;9.176;2022-11-15T06:30:04;97764.59;;;11.22;66.92
550;BME280;20066;48.764;9.176;2022-11-15T06:32:33;97770.88;;;11.08;66.64
550;BME280;20066;48.764;9.176;2022-11-15T06:35:01;97766.13;;;11.23;66.54
550;BME280;20066;48.764;9.176;2022-11-15T06:37:29;97765.59;;;11.42;65.65
550;BME280;20066;48.764;9.176;2022-11-15T06:39:57;97771.56;;;11.16;66.31
550;BME280;20066;48.764;9.176;2022-11-15T06:42:25;97772.47;;;11.02;67.18
550;BME280;20066;48.764;9.176;2022-11-15T06:44:53;97772.38;;;11.13;67.26
550;BME280;20066;48.764;9.176;2022-11-15T06:47:21;97775.47;;;11.52;65.91
550;BME280;20066;48.764;9.176;2022-11-15T06:49:50;97771.00;;;10.14;69.79
550;BME280;20066;48.764;9.176;2022-11-15T06:52:18;97780.28;;;9.99;71.24
550;BME280;20066;48.764;9.176;2022-11-15T06:54:46;97776.41;;;10.87;67.30
550;BME280;20066;48.764;9.176;2022-11-15T06:57:14;97777.16;;;10.91;67.04
550;BME280;20066;48.764;9.176;2022-11-15T06:59:42;97778.06;;;11.22;66.74
550;BME280;20066;48.764;9.176;2022-11-15T07:02:12;97777.72;;;11.16;66.87
550;BME280;20066;48.764;9.176;2022-11-15T07:04:41;97773.41;;;10.74;67.27
550;BME280;20066;48.764;9.176;2022-11-15T07:07:11;97779.13;;;11.32;66.14
550;BME280;20066;48.764;9.176;2022-11-15T07:09:39;97782.25;;;11.71;64.81
550;BME280;20066;48.764;9.176;2022-11-15T07:12:06;97787.72;;;11.64;65.15
550;BME280;20066;48.764;9.176;2022-11-15T07:14:34;97781.41;;;10.89;67.41
550;BME280;20066;48.764;9.176;2022-11-15T07:17:03;97783.13;;;11.13;66.52
550;BME280;20066;48.764;9.176;2022-11-15T07:19:31;97782.09;;;11.44;65.32
550;BME280;20066;48.764;9.176;2022-11-15T07:21:59;97790.16;;;11.44;65.91
550;BME280;20066;48.764;9.176;2022-11-15T07:24:28;97777.88;;;11.43;65.50
550;BME280;20066;48.764;9.176;2022-11-15T07:26:56;97780.09;;;11.52;64.49
550;BME280;20066;48.764;9.176;2022-11-15T07:29:24;97782.16;;;12.16;62.81
550;BME280;20066;48.764;9.176;2022-11-15T07:31:52;97787.13;;;11.42;65.72
550;BME280;20066;48.764;9.176;2022-11-15T07:34:19;97779.56;;;11.71;64.23
550;BME280;20066;48.764;9.176;2022-11-15T07:36:47;97779.31;;;11.55;65.11
550;BME280;20066;48.764;9.176;2022-11-15T07:39:15;97780.19;;;12.20;63.10
550;BME280;20066;48.764;9.176;2022-11-15T07:41:44;97776.22;;;11.56;64.70
550;BME280;20066;48.764;9.176;2022-11-15T07:44:14;97770.22;;;12.13;63.35
550;BME280;20066;48.764;9.176;2022-11-15T07:46:42;97773.13;;;12.87;61.25
550;BME280;20066;48.764;9.176;2022-11-15T07:49:09;97765.47;;;13.08;60.43
550;BME280;20066;48.764;9.176;2022-11-15T07:51:37;97763.91;;;13.11;60.30
550;BME280;20066;48.764;9.176;2022-11-15T07:54:05;97761.88;;;12.92;59.99
550;BME280;20066;48.764;9.176;2022-11-15T07:56:36;97757.88;;;13.46;58.64
550;BME280;20066;48.764;9.176;2022-11-15T07:59:07;97761.13;;;13.38;58.65
550;BME280;20066;48.764;9.176;2022-11-15T08:01:35;97754.38;;;13.49;58.93
550;BME280;20066;48.764;9.176;2022-11-15T08:04:03;97759.00;;;13.49;59.13
550;BME280;20066;48.764;9.176;2022-11-15T08:06:31;97755.59;;;13.22;59.78
550;BME280;20066;48.764;9.176;2022-11-15T08:08:59;97749.03;;;14.09;57.51
550;BME280;20066;48.764;9.176;2022-11-15T08:11:27;97754.38;;;13.49;58.55
550;BME280;20066;48.764;9.176;2022-11-15T08:13:55;97757.25;;;13.82;57.66
550;BME280;20066;48.764;9.176;2022-11-15T08:16:24;97747.59;;;13.61;58.38
550;BME280;20066;48.764;9.176;2022-11-15T08:18:52;97741.50;;;13.77;57.58
550;BME280;20066;48.764;9.176;2022-11-15T08:21:21;97749.50;;;14.23;56.80
550;BME280;20066;48.764;9.176;2022-11-15T08:23:49;97748.91;;;14.52;55.50
550;BME280;20066;48.764;9.176;2022-11-15T08:26:17;97739.72;;;13.90;56.48
550;BME280;20066;48.764;9.176;2022-11-15T08:28:45;97734.19;;;13.97;57.24
550;BME280;20066;48.764;9.176;2022-11-15T08:31:14;97747.00;;;14.33;55.85
550;BME280;20066;48.764;9.176;2022-11-15T08:33:44;97730.31;;;14.18;56.84
550;BME280;20066;48.764;9.176;2022-11-15T08:36:14;97733.50;;;14.49;55.74
550;BME280;20066;48.764;9.176;2022-11-15T08:38:42;97730.16;;;15.26;54.10
550;BME280;20066;48.764;9.176;2022-11-15T08:41:12;97723.19;;;15.09;54.64
550;BME280;20066;48.764;9.176;2022-11-15T08:43:41;97723.56;;;16.13;52.28
550;BME280;20066;48.764;9.176;2022-11-15T08:46:11;97717.69;;;17.85;47.64
550;BME280;20066;48.764;9.176;2022-11-15T08:48:40;97706.44;;;19.07;43.84
550;BME280;20066;48.764;9.176;2022-11-15T08:51:09;97704.22;;;20.38;42.24
550;BME280;20066;48.764;9.176;2022-11-15T08:53:37;97716.56;;;21.00;39.33
550;BME280;20066;48.764;9.176;2022-11-15T08:56:07;97708.97;;;20.20;40.37
550;BME280;20066;48.764;9.176;2022-11-15T08:58:35;97708.88;;;21.13;38.52
550;BME280;20066;48.764;9.176;2022-11-15T09:01:04;97699.28;;;20.70;40.68
550;BME280;20066;48.764;9.176;2022-11-15T09:03:32;97706.09;;;18.96;42.96
550;BME280;20066;48.764;9.176;2022-11-15T09:06:00;97700.41;;;19.21;43.27
550;BME280;20066;48.764;9.176;2022-11-15T09:08:30;97695.34;;;22.10;37.98
550;BME280;20066;48.764;9.176;2022-11-15T09:11:17;97712.16;;;23.37;37.04
550;BME280;20066;48.764;9.176;2022-11-15T09:13:47;97716.88;;;24.29;33.29
550;BME280;20066;48.764;9.176;2022-11-15T09:16:15;97714.44;;;25.05;32.70
550;BME280;20066;48.764;9.176;2022-11-15T09:18:43;97712.38;;;23.54;33.87
550;BME280;20066;48.764;9.176;2022-11-15T09:21:12;97702.97;;;20.58;39.80
550;BME280;20066;48.764;9.176;2022-11-15T09:23:41;97701.03;;;20.82;38.99
550;BME280;20066;48.764;9.176;2022-11-15T09:26:10;97697.88;;;21.84;38.48
550;BME280;20066;48.764;9.176;2022-11-15T09:28:37;97703.03;;;21.68;37.74
550;BME280;20066;48.764;9.176;2022-11-15T09:31:08;97698.88;;;19.20;42.26
550;BME280;20066;48.764;9.176;2022-11-15T09:33:36;97698.34;;;18.45;44.25
550;BME280;20066;48.764;9.176;2022-11-15T09:36:06;97696.72;;;17.17;46.63
550;BME280;20066;48.764;9.176;2022-11-15T09:38:35;97693.06;;;17.32;48.80
550;BME280;20066;48.764;9.176;2022-11-15T09:41:33;97696.09;;;17.13;48.23
550;BME280;20066;48.764;9.176;2022-11-15T09:44:19;97692.28;;;17.66;45.91
550;BME280;20066;48.764;9.176;2022-11-15T09:47:06;97695.09;;;19.27;42.65
550;BME280;20066;48.764;9.176;2022-11-15T09:49:36;97686.00;;;20.45;41.09
550;BME280;20066;48.764;9.176;2022-11-15T09:52:06;97680.41;;;22.41;38.15
550;BME280;20066;48.764;9.176;2022-11-15T09:54:37;97683.41;;;19.90;40.08
550;BME280;20066;48.764;9.176;2022-11-15T09:57:30;97673.44;;;19.50;41.93
550;BME280;20066;48.764;9.176;2022-11-15T10:00:06;97685.72;;;19.37;43.38
550;BME280;20066;48.764;9.176;2022-11-15T10:03:08;97673.56;;;19.92;41.40
550;BME280;20066;48.764;9.176;2022-11-15T10:05:38;97669.84;;;21.36;37.73
550;BME280;20066;48.764;9.176;2022-11-15T10:08:18;97670.53;;;20.98;37.65
550;BME280;20066;48.764;9.176;2022-11-15T10:10:49;97667.28;;;21.33;38.25
550;BME280;20066;48.764;9.176;2022-11-15T10:13:44;97662.50;;;20.38;40.04
550;BME280;20066;48.764;9.176;2022-11-15T10:16:35;97667.72;;;18.63;42.92
550;BME280;20066;48.764;9.176;2022-11-15T10:19:11;97657.03;;;18.96;42.70
550;BME280;20066;48.764;9.176;2022-11-15T10:21:50;97659.84;;;18.74;43.23
550;BME280;20066;48.764;9.176;2022-11-15T10:24:25;97650.22;;;17.58;45.33
550;BME280;20066;48.764;9.176;2022-11-15T10:26:55;97646.72;;;17.14;46.38
550;BME280;20066;48.764;9.176;2022-11-15T10:29:25;97643.25;;;17.36;46.51
550;BME280;20066;48.764;9.176;2022-11-15T10:31:53;97624.66;;;17.12;47.40
550;BME280;20066;48.764;9.176;2022-11-15T10:34:22;97628.88;;;17.01;48.13
550;BME280;20066;48.764;9.176;2022-11-15T10:36:55;97622.38;;;17.76;46.67
550;BME280;20066;48.764;9.176;2022-11-15T10:39:23;97628.63;;;18.07;45.44
550;BME280;20066;48.764;9.176;2022-11-15T10:41:52;97623.41;;;17.48;46.43
550;BME280;20066;48.764;9.176;2022-11-15T10:44:26;97624.03;;;16.95;48.21
550;BME280;20066;48.764;9.176;2022-11-15T10:50:26;97617.50;;;17.93;45.96
550;BME280;20066;48.764;9.176;2022-11-15T10:52:55;97613.56;;;17.72;47.39
550;BME280;20066;48.764;9.176;2022-11-15T10:55:26;97603.34;;;16.64;49.69
550;BME280;20066;48.764;9.176;2022-11-15T10:57:57;97604.59;;;16.25;50.78
550;BME280;20066;48.764;9.176;2022-11-15T11:00:37;97602.66;;;16.85;50.14
550;BME280;20066;48.764;9.176;2022-11-15T11:03:26;97597.66;;;16.83;49.64
550;BME280;20066;48.764;9.176;2022-11-15T11:06:07;97601.78;;;17.22;49.07
550;BME280;20066;48.764;9.176;2022-11-15T11:08:36;97597.91;;;17.76;47.59
550;BME280;20066;48.764;9.176;2022-11-15T11:11:05;97601.31;;;17.67;47.34
550;BME280;20066;48.764;9.176;2022-11-15T11:13:36;97601.25;;;16.80;49.75
550;BME280;20066;48.764;9.176;2022-11-15T11:16:33;97603.25;;;15.78;52.83
550;BME280;20066;48.764;9.176;2022-11-15T11:21:58;97593.56;;;15.52;53.93
550;BME280;20066;48.764;9.176;2022-11-15T11:24:34;97587.00;;;16.42;52.34
550;BME280;20066;48.764;9.176;2022-11-15T11:27:23;97589.41;;;16.27;52.39
550;BME280;20066;48.764;9.176;2022-11-15T11:30:04;97582.91;;;16.72;51.49
550;BME280;20066;48.764;9.176;2022-11-15T11:32:57;97591.56;;;18.01;48.83
550;BME280;20066;48.764;9.176;2022-11-15T11:35:33;97584.03;;;18.14;47.77
550;BME280;20066;48.764;9.176;2022-11-15T11:38:15;97582.75;;;17.22;50.07
550;BME280;20066;48.764;9.176;2022-11-15T11:40:57;97571.53;;;16.99;50.59
550;BME280;20066;48.764;9.176;2022-11-15T11:43:32;97570.84;;;16.26;53.04
550;BME280;20066;48.764;9.176;2022-11-15T11:46:13;97569.09;;;16.32;53.17
550;BME280;20066;48.764;9.176;2022-11-15T11:48:46;97551.59;;;16.80;51.98
550;BME280;20066;48.764;9.176;2022-11-15T11:51:18;97544.00;;;17.31;50.15
550;BME280;20066;48.764;9.176;2022-11-15T11:53:52;97545.13;;;18.04;48.86
550;BME280;20066;48.764;9.176;2022-11-15T11:56:26;97537.06;;;17.30;49.97
550;BME280;20066;48.764;9.176;2022-11-15T11:59:07;97544.41;;;17.51;50.42
550;BME280;20066;48.764;9.176;2022-11-15T12:01:41;97541.56;;;16.55;51.81
550;BME280;20066;48.764;9.176;2022-11-15T12:04:14;97538.56;;;17.09;51.36
550;BME280;20066;48.764;9.176;2022-11-15T12:06:48;97535.25;;;18.47;48.82
550;BME280;20066;48.764;9.176;2022-11-15T12:09:21;97540.59;;;19.05;47.57
550;BME280;20066;48.764;9.176;2022-11-15T12:11:55;97536.53;;;19.61;45.13
550;BME280;20066;48.764;9.176;2022-11-15T12:14:28;97535.53;;;18.40;47.24
550;BME280;20066;48.764;9.176;2022-11-15T12:16:58;97522.25;;;18.88;46.28
550;BME280;20066;48.764;9.176;2022-11-15T12:19:28;97520.38;;;18.21;48.27
550;BME280;20066;48.764;9.176;2022-11-15T12:22:01;97513.97;;;17.34;49.92
550;BME280;20066;48.764;9.176;2022-11-15T12:24:34;97518.31;;;17.32;50.25
550;BME280;20066;48.764;9.176;2022-11-15T12:27:07;97512.56;;;17.92;48.91
550;BME280;20066;48.764;9.176;2022-11-15T12:29:44;97514.94;;;18.21;48.32
550;BME280;20066;48.764;9.176;2022-11-15T12:32:25;97507.03;;;17.12;51.29
550;BME280;20066;48.764;9.176;2022-11-15T12:34:57;97506.03;;;17.49;50.42
550;BME280;20066;48.764;9.176;2022-11-15T12:37:47;97506.00;;;16.96;51.95
550;BME280;20066;48.764;9.176;2022-11-15T12:40:20;97506.06;;;16.84;52.46
550;BME280;20066;48.764;9.176;2022-11-15T12:45:44;97505.50;;;15.69;55.54
550;BME280;20066;48.764;9.176;2022-11-15T12:54:57;97497.03;;;16.18;55.42
550;BME280;20066;48.764;9.176;2022-11-15T12:57:33;97493.75;;;16.92;53.59
550;BME280;20066;48.764;9.176;2022-11-15T13:03:25;97484.03;;;15.88;55.70
550;BME280;20066;48.764;9.176;2022-11-15T13:05:59;97481.03;;;16.67;53.75
550;BME280;20066;48.764;9.176;2022-11-15T13:08:39;97478.56;;;16.60;54.43
550;BME280;20066;48.764;9.176;2022-11-15T13:11:44;97471.22;;;16.01;56.12
550;BME280;20066;48.764;9.176;2022-11-15T13:14:37;97473.31;;;15.59;58.11
550;BME280;20066;48.764;9.176;2022-11-15T13:17:28;97466.13;;;15.77;57.81
550;BME280;20066;48.764;9.176;2022-11-15T13:20:02;97462.66;;;15.77;57.54
550;BME280;20066;48.764;9.176;2022-11-15T13:22:39;97450.63;;;14.73;60.46
550;BME280;20066;48.764;9.176;2022-11-15T13:28:38;97448.25;;;15.55;58.21
550;BME280;20066;48.764;9.176;2022-11-15T13:31:24;97450.19;;;15.16;59.16
550;BME280;20066;48.764;9.176;2022-11-15T13:33:54;97444.69;;;15.32;58.02
550;BME280;20066;48.764;9.176;2022-11-15T13:36:26;97446.66;;;15.45;57.01
550;BME280;20066;48.764;9.176;2022-11-15T13:38:58;97445.47;;;15.46;57.51
550;BME280;20066;48.764;9.176;2022-11-15T13:41:28;97433.38;;;15.09;57.72
550;BME280;20066;48.764;9.176;2022-11-15T13:43:58;97429.25;;;14.91;57.88
550;BME280;20066;48.764;9.176;2022-11-15T13:46:27;97422.34;;;15.16;57.39
550;BME280;20066;48.764;9.176;2022-11-15T13:48:57;97426.13;;;15.05;58.11
550;BME280;20066;48.764;9.176;2022-11-15T13:51:35;97414.59;;;14.89;58.21
550;BME280;20066;48.764;9.176;2022-11-15T13:54:13;97419.09;;;15.59;56.46
550;BME280;20066;48.764;9.176;2022-11-15T13:56:44;97404.88;;;14.91;58.13
550;BME280;20066;48.764;9.176;2022-11-15T13:59:24;97415.22;;;15.22;58.57
550;BME280;20066;48.764;9.176;2022-11-15T14:01:53;97409.19;;;14.47;61.38
550;BME280;20066;48.764;9.176;2022-11-15T14:04:23;97406.97;;;15.13;60.43
550;BME280;20066;48.764;9.176;2022-11-15T14:06:56;97403.81;;;15.52;59.12
550;BME280;20066;48.764;9.176;2022-11-15T14:09:34;97393.59;;;15.81;58.06
550;BME280;20066;48.764;9.176;2022-11-15T14:12:22;97394.25;;;16.20;58.23